createdAt,value
2023-04-17T00:00:35.534Z,6.7649
2023-04-17T00:01:36.527Z,6.7830
2023-04-17T00:02:37.710Z,6.7845
2023-04-17T00:03:38.781Z,6.7791
2023-04-17T00:04:39.862Z,6.7329
2023-04-17T00:05:40.707Z,6.7146
2023-04-17T00:06:41.747Z,6.7524
2023-04-17T00:07:42.768Z,6.7867
2023-04-17T00:08:43.823Z,6.8136
2023-04-17T00:09:44.889Z,6.7608
2023-04-17T00:10:53.806Z,6.7366
2023-04-17T00:11:46.957Z,6.7187
2023-04-17T00:12:48.004Z,6.7682
2023-04-17T00:13:49.027Z,6.7853
2023-04-17T00:14:50.148Z,6.7779
2023-04-17T00:15:51.130Z,6.7208
2023-04-17T00:16:52.221Z,6.6670
2023-04-17T00:17:53.225Z,6.6616
2023-04-17T00:18:54.257Z,6.7070
2023-04-17T00:19:55.289Z,6.6840
2023-04-17T00:20:56.308Z,6.7070
2023-04-17T00:21:57.367Z,6.7251
2023-04-17T00:22:58.365Z,6.7312
2023-04-17T00:23:59.443Z,6.7070
2023-04-17T00:25:00.501Z,6.7565
2023-04-17T00:26:01.502Z,6.7401
2023-04-17T00:27:02.557Z,6.7259
2023-04-17T00:28:03.582Z,6.7087
2023-04-17T00:29:04.606Z,6.6830
2023-04-17T00:30:05.700Z,6.6984
2023-04-17T00:31:06.701Z,6.7154
2023-04-17T00:32:08.090Z,6.7093
2023-04-17T00:33:08.819Z,6.6752
2023-04-17T00:34:09.829Z,6.6520
2023-04-17T00:35:10.872Z,6.6234
2023-04-17T00:36:11.894Z,6.6723
2023-04-17T00:37:12.915Z,6.6598
2023-04-17T00:38:13.953Z,6.6573
2023-04-17T00:39:15.047Z,6.6575
2023-04-17T00:40:16.076Z,6.7035
2023-04-17T00:41:17.054Z,6.7015
2023-04-17T00:42:18.101Z,6.6959
2023-04-17T00:43:19.131Z,6.7315
2023-04-17T00:44:20.193Z,6.6980
2023-04-17T00:45:21.278Z,6.7066
2023-04-17T00:46:22.324Z,6.6941
2023-04-17T00:47:23.329Z,6.7265
2023-04-17T00:48:24.334Z,6.6883
2023-04-17T00:49:25.396Z,6.6520
2023-04-17T00:50:26.495Z,6.6550
2023-04-17T00:51:27.534Z,6.6179
2023-04-17T00:52:28.508Z,6.6592
2023-04-17T00:53:29.569Z,6.6766
2023-04-17T00:54:30.599Z,6.7080
2023-04-17T00:55:31.637Z,6.6994
2023-04-17T00:56:32.706Z,6.7520
2023-04-17T00:57:33.706Z,6.7210
2023-04-17T00:58:34.756Z,6.7261
2023-04-17T00:59:35.791Z,6.7358
2023-04-17T01:00:36.816Z,6.7066
2023-04-17T01:01:38.043Z,6.6815
2023-04-17T01:02:38.989Z,6.7062
2023-04-17T01:03:39.996Z,6.6844
2023-04-17T01:04:40.963Z,6.6863
2023-04-17T01:05:42.015Z,6.6795
2023-04-17T01:06:43.100Z,6.6530
2023-04-17T01:07:44.105Z,6.6657
2023-04-17T01:08:45.119Z,6.6830
2023-04-17T01:09:46.148Z,6.7220
2023-04-17T01:10:47.189Z,6.6631
2023-04-17T01:11:48.232Z,6.6039
2023-04-17T01:12:49.297Z,6.6435
2023-04-17T01:13:50.280Z,6.7171
2023-04-17T01:14:51.316Z,6.6817
2023-04-17T01:15:52.372Z,6.6980
2023-04-17T01:16:53.511Z,6.7479
2023-04-17T01:17:54.609Z,6.7113
2023-04-17T01:18:55.481Z,6.6766
2023-04-17T01:19:56.517Z,6.6403
2023-04-17T01:20:57.578Z,6.6156
2023-04-17T01:21:58.658Z,6.6236
2023-04-17T01:22:59.655Z,6.6497
2023-04-17T01:24:00.682Z,6.6304
2023-04-17T01:25:01.720Z,6.6392
2023-04-17T01:26:02.746Z,6.6573
2023-04-17T01:27:03.830Z,6.6456
2023-04-17T01:28:04.823Z,6.5848
2023-04-17T01:29:05.871Z,6.6117
2023-04-17T01:30:06.929Z,6.6349
2023-04-17T01:31:07.987Z,6.6133
2023-04-17T01:32:09.012Z,6.6682
2023-04-17T01:33:10.030Z,6.6505
2023-04-17T01:34:11.082Z,6.6626
2023-04-17T01:35:12.090Z,6.6583
2023-04-17T01:36:13.148Z,6.6366
2023-04-17T01:37:14.202Z,6.6600
2023-04-17T01:38:15.217Z,6.6119
2023-04-17T01:39:16.247Z,6.6109
2023-04-17T01:40:17.290Z,6.6659
2023-04-17T01:41:18.350Z,6.6462
2023-04-17T01:42:19.432Z,6.6144
2023-04-17T01:43:20.423Z,6.6300
2023-04-17T01:44:21.442Z,6.6409
2023-04-17T01:45:22.491Z,6.6164
2023-04-17T01:46:23.568Z,6.6382
2023-04-17T01:47:24.657Z,6.6928
2023-04-17T01:48:25.606Z,6.7165
2023-04-17T01:49:26.656Z,6.7308
2023-04-17T01:50:27.695Z,6.6916
2023-04-17T01:51:28.708Z,6.7074
2023-04-17T01:52:29.828Z,6.7349
2023-04-17T01:53:30.804Z,6.6746
2023-04-17T01:54:31.846Z,6.6616
2023-04-17T01:55:32.899Z,6.6612
2023-04-17T01:56:33.971Z,6.5998
2023-04-17T01:57:35.018Z,6.6082
2023-04-17T01:58:36.008Z,6.6696
2023-04-17T01:59:37.050Z,6.6953
2023-04-17T02:00:38.087Z,6.7045
2023-04-17T02:01:39.201Z,6.6649
2023-04-17T02:02:40.282Z,6.6347
2023-04-17T02:03:41.545Z,6.6185
2023-04-17T02:04:42.292Z,6.6351
2023-04-17T02:05:43.265Z,6.6076
2023-04-17T02:06:44.324Z,6.5920
2023-04-17T02:07:45.375Z,6.5955
2023-04-17T02:08:46.388Z,6.6051
2023-04-17T02:09:47.408Z,6.6016
2023-04-17T02:10:48.447Z,6.6187
2023-04-17T02:11:49.494Z,6.6540
2023-04-17T02:12:50.582Z,6.6653
2023-04-17T02:13:51.548Z,6.6088
2023-04-17T02:14:52.590Z,6.6168
2023-04-17T02:15:53.636Z,6.6076
2023-04-17T02:16:54.664Z,6.6189
2023-04-17T02:17:55.820Z,6.6279
2023-04-17T02:18:56.803Z,6.6222
2023-04-17T02:19:57.782Z,6.6257
2023-04-17T02:20:58.830Z,6.6353
2023-04-17T02:21:59.892Z,6.6628
2023-04-17T02:23:01.176Z,6.6585
2023-04-17T02:24:01.976Z,6.6470
2023-04-17T02:25:02.979Z,6.6039
2023-04-17T02:26:04.039Z,6.6281
2023-04-17T02:27:05.099Z,6.6474
2023-04-17T02:28:06.103Z,6.7039
2023-04-17T02:29:07.206Z,6.7335
2023-04-17T02:30:08.185Z,6.6961
2023-04-17T02:31:09.250Z,6.7025
2023-04-17T02:32:10.273Z,6.6832
2023-04-17T02:33:11.299Z,6.6820
2023-04-17T02:34:12.373Z,6.6733
2023-04-17T02:35:13.383Z,6.6980
2023-04-17T02:36:14.437Z,6.6571
2023-04-17T02:37:15.477Z,6.6485
2023-04-17T02:38:16.481Z,6.6460
2023-04-17T02:39:17.565Z,6.6596
2023-04-17T02:40:18.584Z,6.6659
2023-04-17T02:41:19.596Z,6.6550
2023-04-17T02:42:20.638Z,6.6797
2023-04-17T02:43:21.709Z,6.6930
2023-04-17T02:44:22.797Z,6.6647
2023-04-17T02:45:23.761Z,6.6844
2023-04-17T02:46:24.821Z,6.6670
2023-04-17T02:47:25.851Z,6.6969
2023-04-17T02:48:26.861Z,6.6540
2023-04-17T02:49:27.982Z,6.7208
2023-04-17T02:50:28.944Z,6.6700
2023-04-17T02:51:29.981Z,6.6427
2023-04-17T02:52:31.046Z,6.6883
2023-04-17T02:53:32.059Z,6.6906
2023-04-17T02:54:33.103Z,6.6437
2023-04-17T02:55:34.266Z,6.6314
2023-04-17T02:56:35.221Z,6.6170
2023-04-17T02:57:36.332Z,6.6172
2023-04-17T02:58:37.321Z,6.6166
2023-04-17T02:59:38.393Z,6.6179
2023-04-17T03:00:39.432Z,6.6168
2023-04-17T03:01:40.436Z,6.6296
2023-04-17T03:02:41.590Z,6.6025
2023-04-17T03:03:42.679Z,6.6060
2023-04-17T03:04:43.616Z,6.5887
2023-04-17T03:05:44.664Z,6.6335
2023-04-17T03:06:45.618Z,6.6255
2023-04-17T03:07:46.725Z,6.7208
2023-04-17T03:08:47.789Z,6.7352
2023-04-17T03:09:48.900Z,6.6780
2023-04-17T03:10:49.832Z,6.6875
2023-04-17T03:11:50.911Z,6.6423
2023-04-17T03:12:51.975Z,6.6483
2023-04-17T03:13:52.955Z,6.6292
2023-04-17T03:14:54.022Z,6.7060
2023-04-17T03:15:55.024Z,6.7742
2023-04-17T03:16:56.101Z,6.7528
2023-04-17T03:17:57.269Z,6.7382
2023-04-17T03:18:58.125Z,6.7187
2023-04-17T03:19:59.267Z,6.6992
2023-04-17T03:21:00.219Z,6.7255
2023-04-17T03:22:01.319Z,6.7177
2023-04-17T03:23:02.276Z,6.7076
2023-04-17T03:24:03.354Z,6.7185
2023-04-17T03:25:04.518Z,6.7154
2023-04-17T03:26:05.425Z,6.7391
2023-04-17T03:27:06.437Z,6.7208
2023-04-17T03:28:07.577Z,6.6982
2023-04-17T03:29:08.529Z,6.7349
2023-04-17T03:30:09.714Z,6.7662
2023-04-17T03:31:10.680Z,6.7518
2023-04-17T03:32:11.916Z,6.7812
2023-04-17T03:33:12.718Z,6.7563
2023-04-17T03:34:13.901Z,6.7413
2023-04-17T03:35:14.841Z,6.7121
2023-04-17T03:36:15.829Z,6.7200
2023-04-17T03:37:16.873Z,6.6672
2023-04-17T03:38:17.949Z,6.6670
2023-04-17T03:39:18.925Z,6.7058
2023-04-17T03:40:20.063Z,6.6994
2023-04-17T03:41:21.013Z,6.7444
2023-04-17T03:42:22.073Z,6.7000
2023-04-17T03:43:23.088Z,6.7208
2023-04-17T03:44:24.124Z,6.7243
2023-04-17T03:45:25.275Z,6.7693
2023-04-17T03:46:26.401Z,6.7760
2023-04-17T03:47:27.231Z,6.7758
2023-04-17T03:48:28.301Z,6.7446
2023-04-17T03:49:29.227Z,6.7218
2023-04-17T03:50:30.337Z,6.7444
2023-04-17T03:51:31.284Z,6.7580
2023-04-17T03:52:32.347Z,6.7621
2023-04-17T03:53:33.360Z,6.6883
2023-04-17T03:54:34.411Z,6.7296
2023-04-17T03:55:35.467Z,6.7748
2023-04-17T03:56:36.512Z,6.8253
2023-04-17T03:57:37.526Z,6.8091
2023-04-17T03:58:38.565Z,6.7773
2023-04-17T03:59:39.606Z,6.7549
2023-04-17T04:00:40.659Z,6.7740
2023-04-17T04:01:41.689Z,6.7886
2023-04-17T04:02:42.888Z,6.7573
2023-04-17T04:03:44.131Z,6.7573
2023-04-17T04:04:44.847Z,6.7631
2023-04-17T04:05:45.880Z,6.7771
2023-04-17T04:06:46.876Z,6.7660
2023-04-17T04:07:47.923Z,6.8007
2023-04-17T04:08:48.937Z,6.7738
2023-04-17T04:09:49.977Z,6.7693
2023-04-17T04:10:51.080Z,6.7403
2023-04-17T04:11:52.087Z,6.7951
2023-04-17T04:12:53.099Z,6.7596
2023-04-17T04:13:54.144Z,6.7736
2023-04-17T04:14:55.178Z,6.7674
2023-04-17T04:15:56.303Z,6.7705
2023-04-17T04:16:57.276Z,6.7715
2023-04-17T04:17:58.381Z,6.7707
2023-04-17T04:18:59.357Z,6.8081
2023-04-17T04:20:00.387Z,6.8186
2023-04-17T04:21:01.494Z,6.7758
2023-04-17T04:22:03.036Z,6.7888
2023-04-17T04:23:03.542Z,6.8114
2023-04-17T04:24:04.551Z,6.8124
2023-04-17T04:25:05.616Z,6.7976
2023-04-17T04:26:06.651Z,6.8296
2023-04-17T04:27:07.720Z,6.8368
2023-04-17T04:28:08.697Z,6.8405
2023-04-17T04:29:09.921Z,6.8044
2023-04-17T04:30:10.785Z,6.8580
2023-04-17T04:31:11.892Z,6.8588
2023-04-17T04:32:12.852Z,6.7997
2023-04-17T04:33:13.884Z,6.7910
2023-04-17T04:34:14.939Z,6.7789
2023-04-17T04:35:16.016Z,6.7746
2023-04-17T04:36:17.047Z,6.7908
2023-04-17T04:37:18.045Z,6.7682
2023-04-17T04:38:19.077Z,6.8418
2023-04-17T04:39:20.172Z,6.8533
2023-04-17T04:40:21.251Z,6.8188
2023-04-17T04:41:22.340Z,6.8099
2023-04-17T04:42:23.298Z,6.8048
2023-04-17T04:43:24.310Z,6.7962
2023-04-17T04:44:25.353Z,6.7824
2023-04-17T04:45:26.375Z,6.7867
2023-04-17T04:46:27.508Z,6.8216
2023-04-17T04:47:28.468Z,6.7984
2023-04-17T04:48:29.505Z,6.8179
2023-04-17T04:49:30.540Z,6.8243
2023-04-17T04:50:31.594Z,6.8038
2023-04-17T04:51:32.661Z,6.7898
2023-04-17T04:52:33.652Z,6.7586
2023-04-17T04:53:34.740Z,6.7752
2023-04-17T04:54:35.739Z,6.8223
2023-04-17T04:55:36.772Z,6.8742
2023-04-17T04:56:37.832Z,6.8644
2023-04-17T04:57:38.855Z,6.8307
2023-04-17T04:58:39.927Z,6.8040
2023-04-17T04:59:40.967Z,6.8333
2023-04-17T05:00:42.005Z,6.8405
2023-04-17T05:01:43.119Z,6.8387
2023-04-17T05:02:44.278Z,6.8362
2023-04-17T05:03:45.220Z,6.8734
2023-04-17T05:04:46.219Z,6.8896
2023-04-17T05:05:47.178Z,6.8755
2023-04-17T05:06:48.262Z,6.8578
2023-04-17T05:07:49.265Z,6.8843
2023-04-17T05:08:50.292Z,6.8623
2023-04-17T05:09:51.353Z,6.8644
2023-04-17T05:10:52.363Z,6.8701
2023-04-17T05:11:53.447Z,6.8479
2023-04-17T05:12:54.453Z,6.8588
2023-04-17T05:13:55.507Z,6.8243
2023-04-17T05:14:56.543Z,6.7703
2023-04-17T05:15:59.600Z,6.7697
2023-04-17T05:16:58.608Z,6.8060
2023-04-17T05:17:59.681Z,6.8510
2023-04-17T05:19:00.643Z,6.8025
2023-04-17T05:20:01.716Z,6.7997
2023-04-17T05:21:02.733Z,6.7791
2023-04-17T05:22:03.878Z,6.7875
2023-04-17T05:23:04.844Z,6.7413
2023-04-17T05:24:05.866Z,6.6941
2023-04-17T05:25:06.901Z,6.7111
2023-04-17T05:26:07.961Z,6.7477
2023-04-17T05:27:09.094Z,6.7555
2023-04-17T05:28:10.024Z,6.8116
2023-04-17T05:29:11.333Z,6.7916
2023-04-17T05:30:12.295Z,6.7592
2023-04-17T05:31:13.099Z,6.7317
2023-04-17T05:32:14.244Z,6.6885
2023-04-17T05:33:15.290Z,6.6982
2023-04-17T05:34:16.158Z,6.7300
2023-04-17T05:35:17.184Z,6.7984
2023-04-17T05:36:18.249Z,6.8372
2023-04-17T05:37:19.294Z,6.8204
2023-04-17T05:38:20.288Z,6.7126
2023-04-17T05:39:21.349Z,6.5926
2023-04-17T05:40:22.363Z,6.5955
2023-04-17T05:41:23.410Z,6.6333
2023-04-17T05:42:24.491Z,6.6142
2023-04-17T05:43:25.468Z,6.6154
2023-04-17T05:44:26.528Z,6.5934
2023-04-17T05:45:27.586Z,6.5756
2023-04-17T05:46:28.763Z,6.5579
2023-04-17T05:47:29.705Z,6.5211
2023-04-17T05:48:30.718Z,6.5511
2023-04-17T05:49:31.670Z,6.5404
2023-04-17T05:50:32.702Z,6.5599
2023-04-17T05:51:33.734Z,6.5811
2023-04-17T05:52:34.803Z,6.6417
2023-04-17T05:53:35.834Z,6.5932
2023-04-17T05:54:36.886Z,6.6949
2023-04-17T05:55:37.886Z,6.6776
2023-04-17T05:56:38.948Z,6.6824
2023-04-17T05:57:40.033Z,6.6994
2023-04-17T05:58:41.038Z,6.7413
2023-04-17T05:59:42.056Z,6.6403
2023-04-17T06:00:43.048Z,6.6189
2023-04-17T06:01:44.114Z,6.6902
2023-04-17T06:02:45.382Z,6.6454
2023-04-17T06:03:46.448Z,6.6723
2023-04-17T06:04:47.404Z,6.7144
2023-04-17T06:05:48.355Z,6.8492
2023-04-17T06:06:49.319Z,6.8617
2023-04-17T06:07:50.368Z,6.8730
2023-04-17T06:08:51.392Z,6.9135
2023-04-17T06:09:52.524Z,6.8485
2023-04-17T06:10:53.464Z,6.8225
2023-04-17T06:11:54.485Z,6.7506
2023-04-17T06:12:55.548Z,6.7672
2023-04-17T06:13:56.616Z,6.8190
2023-04-17T06:14:57.608Z,6.8233
2023-04-17T06:15:58.637Z,6.8027
2023-04-17T06:16:59.723Z,6.8362
2023-04-17T06:18:00.746Z,6.9416
2023-04-17T06:19:01.745Z,6.9381
2023-04-17T06:20:02.724Z,6.8978
2023-04-17T06:21:03.802Z,6.9730
2023-04-17T06:22:04.849Z,7.0086
2023-04-17T06:23:05.875Z,7.0342
2023-04-17T06:24:07.048Z,7.0346
2023-04-17T06:25:08.038Z,7.0307
2023-04-17T06:26:09.065Z,7.0398
2023-04-17T06:27:10.166Z,6.9560
2023-04-17T06:28:11.142Z,7.0063
2023-04-17T06:29:12.525Z,7.0427
2023-04-17T06:30:13.241Z,7.0503
2023-04-17T06:31:14.296Z,6.9944
2023-04-17T06:32:15.294Z,6.9882
2023-04-17T06:33:16.381Z,7.0581
2023-04-17T06:34:17.408Z,7.0622
2023-04-17T06:35:18.376Z,7.0959
2023-04-17T06:36:19.431Z,7.1675
2023-04-17T06:37:20.455Z,7.2029
2023-04-17T06:38:21.467Z,7.1359
2023-04-17T06:39:22.680Z,7.1271
2023-04-17T06:40:23.563Z,7.1104
2023-04-17T06:41:24.659Z,7.2442
2023-04-17T06:42:25.640Z,7.3015
2023-04-17T06:43:26.660Z,7.3043
2023-04-17T06:44:27.739Z,7.3781
2023-04-17T06:45:28.745Z,7.3894
2023-04-17T06:46:29.872Z,7.3315
2023-04-17T06:47:30.842Z,7.3489
2023-04-17T06:48:31.859Z,7.3284
2023-04-17T06:49:32.937Z,7.2813
2023-04-17T06:50:33.958Z,7.3142
2023-04-17T06:51:34.967Z,7.1922
2023-04-17T06:52:36.058Z,6.9693
2023-04-17T06:53:37.080Z,7.0486
2023-04-17T06:54:38.117Z,6.9847
2023-04-17T06:55:39.143Z,6.9962
2023-04-17T06:56:40.197Z,7.0375
2023-04-17T06:57:41.186Z,7.0548
2023-04-17T06:58:42.324Z,7.0667
2023-04-17T06:59:43.304Z,7.0591
2023-04-17T07:00:44.386Z,7.1486
2023-04-17T07:01:45.385Z,7.0774
2023-04-17T07:02:46.438Z,7.0796
2023-04-17T07:03:47.556Z,6.9221
2023-04-17T07:04:48.496Z,6.8765
2023-04-17T07:05:49.462Z,6.9178
2023-04-17T07:06:50.498Z,6.9749
2023-04-17T07:07:51.554Z,6.9710
2023-04-17T07:08:54.948Z,7.0127
2023-04-17T07:09:53.714Z,7.1004
2023-04-17T07:10:54.696Z,7.0969
2023-04-17T07:11:55.752Z,7.1032
2023-04-17T07:12:56.827Z,7.1154
2023-04-17T07:13:57.819Z,7.0665
2023-04-17T07:14:58.939Z,7.0831
2023-04-17T07:15:59.971Z,7.1166
2023-04-17T07:17:00.982Z,7.1008
2023-04-17T07:18:01.934Z,7.0989
2023-04-17T07:19:02.947Z,7.0983
2023-04-17T07:20:03.999Z,7.0369
2023-04-17T07:21:05.016Z,7.0441
2023-04-17T07:22:06.049Z,7.0318
2023-04-17T07:23:07.067Z,6.9500
2023-04-17T07:24:08.116Z,7.0383
2023-04-17T07:25:09.194Z,7.0342
2023-04-17T07:26:10.219Z,7.0533
2023-04-17T07:27:11.224Z,7.0601
2023-04-17T07:28:12.244Z,7.0874
2023-04-17T07:29:13.698Z,7.0613
2023-04-17T07:30:14.368Z,7.0067
2023-04-17T07:31:15.340Z,6.9543
2023-04-17T07:32:16.365Z,6.9623
2023-04-17T07:33:17.418Z,7.0094
2023-04-17T07:34:18.450Z,7.0073
2023-04-17T07:35:19.572Z,7.0205
2023-04-17T07:36:20.537Z,7.0398
2023-04-17T07:37:21.923Z,7.0451
2023-04-17T07:38:22.593Z,7.0402
2023-04-17T07:39:23.639Z,7.0223
2023-04-17T07:40:24.768Z,6.9913
2023-04-17T07:41:25.774Z,7.0114
2023-04-17T07:42:26.755Z,6.9607
2023-04-17T07:43:27.804Z,7.0221
2023-04-17T07:44:28.806Z,7.0505
2023-04-17T07:45:29.833Z,7.0320
2023-04-17T07:46:31.001Z,6.8931
2023-04-17T07:47:31.979Z,6.8921
2023-04-17T07:48:32.956Z,6.7834
2023-04-17T07:49:34.004Z,6.7423
2023-04-17T07:50:35.041Z,6.8190
2023-04-17T07:51:36.164Z,6.8892
2023-04-17T07:52:37.122Z,6.8545
2023-04-17T07:53:38.125Z,6.7725
2023-04-17T07:54:39.200Z,6.7758
2023-04-17T07:55:40.211Z,6.7814
2023-04-17T07:56:41.286Z,6.7842
2023-04-17T07:57:42.277Z,6.7986
2023-04-17T07:58:43.354Z,6.7514
2023-04-17T07:59:44.388Z,6.7393
2023-04-17T08:00:45.424Z,6.7257
2023-04-17T08:01:46.500Z,6.7469
2023-04-17T08:02:47.574Z,6.8453
2023-04-17T08:03:48.653Z,6.9897
2023-04-17T08:04:49.890Z,7.0084
2023-04-17T08:05:50.623Z,7.0490
2023-04-17T08:06:51.635Z,7.1197
2023-04-17T08:07:52.794Z,7.2842
2023-04-17T08:08:53.762Z,7.3738
2023-04-17T08:09:54.879Z,7.4695
2023-04-17T08:10:55.856Z,7.3890
2023-04-17T08:11:58.230Z,7.4728
2023-04-17T08:12:57.968Z,7.6275
2023-04-17T08:13:58.971Z,7.5669
2023-04-17T08:15:00.001Z,7.4824
2023-04-17T08:16:01.056Z,7.4810
2023-04-17T08:17:02.322Z,7.6482
2023-04-17T08:18:03.171Z,7.6957
2023-04-17T08:19:04.138Z,7.7784
2023-04-17T08:20:05.207Z,8.0005
2023-04-17T08:21:06.236Z,8.1241
2023-04-17T08:22:07.386Z,7.8435
2023-04-17T08:23:08.300Z,7.6104
2023-04-17T08:24:09.364Z,7.7417
2023-04-17T08:25:10.390Z,7.6589
2023-04-17T08:26:11.450Z,7.5377
2023-04-17T08:27:12.526Z,7.4619
2023-04-17T08:28:13.523Z,7.4983
2023-04-17T08:29:14.859Z,7.5767
2023-04-17T08:30:18.541Z,7.4685
2023-04-17T08:31:16.675Z,7.3555
2023-04-17T08:32:17.770Z,7.6718
2023-04-17T08:33:18.779Z,7.4598
2023-04-17T08:34:19.801Z,7.4892
2023-04-17T08:35:20.926Z,7.5519
2023-04-17T08:36:21.856Z,7.4769
2023-04-17T08:37:23.014Z,7.5266
2023-04-17T08:38:23.964Z,7.3762
2023-04-17T08:39:25.074Z,7.4342
2023-04-17T08:40:26.173Z,7.4183
2023-04-17T08:41:27.041Z,7.4697
2023-04-17T08:42:28.320Z,7.4500
2023-04-17T08:43:29.118Z,7.4909
2023-04-17T08:44:30.157Z,7.6587
2023-04-17T08:45:31.200Z,7.6792
2023-04-17T08:46:32.384Z,7.8980
2023-04-17T08:47:33.378Z,8.0522
2023-04-17T08:48:34.450Z,8.0434
2023-04-17T08:49:35.345Z,7.9165
2023-04-17T08:50:36.375Z,7.8210
2023-04-17T08:51:37.443Z,7.8739
2023-04-17T08:52:38.399Z,8.0839
2023-04-17T08:53:39.406Z,8.0933
2023-04-17T08:54:40.461Z,8.1139
2023-04-17T08:55:41.513Z,8.1562
2023-04-17T08:56:42.555Z,8.1632
2023-04-17T08:57:43.632Z,8.0321
2023-04-17T08:58:44.670Z,8.0329
2023-04-17T08:59:45.628Z,7.8329
2023-04-17T09:00:46.689Z,7.8731
2023-04-17T09:01:47.775Z,8.0134
2023-04-17T09:02:48.845Z,8.1644
2023-04-17T09:03:49.911Z,7.9438
2023-04-17T09:04:50.955Z,8.0833
2023-04-17T09:05:51.903Z,8.2020
2023-04-17T09:06:52.862Z,8.2371
2023-04-17T09:07:53.903Z,8.3252
2023-04-17T09:08:55.075Z,8.4842
2023-04-17T09:09:56.132Z,8.5220
2023-04-17T09:10:57.106Z,8.6978
2023-04-17T09:11:58.173Z,8.8798
2023-04-17T09:12:59.235Z,9.3467
2023-04-17T09:14:00.266Z,9.1485
2023-04-17T09:15:01.270Z,8.6095
2023-04-17T09:16:02.273Z,8.5384
2023-04-17T09:17:03.274Z,8.7428
2023-04-17T09:18:04.333Z,8.7480
2023-04-17T09:19:05.375Z,8.8061
2023-04-17T09:20:06.447Z,8.9316
2023-04-17T09:21:07.408Z,8.9024
2023-04-17T09:22:08.470Z,8.8665
2023-04-17T09:23:09.506Z,8.8657
2023-04-17T09:24:10.568Z,8.7147
2023-04-17T09:25:11.537Z,8.5522
2023-04-17T09:26:12.617Z,8.7285
2023-04-17T09:27:13.848Z,8.6709
2023-04-17T09:28:14.687Z,8.5224
2023-04-17T09:29:16.030Z,8.6746
2023-04-17T09:30:16.766Z,8.8420
2023-04-17T09:31:17.861Z,8.9072
2023-04-17T09:32:18.887Z,8.9441
2023-04-17T09:33:19.864Z,8.9926
2023-04-17T09:34:20.902Z,9.1031
2023-04-17T09:35:21.952Z,9.1534
2023-04-17T09:36:22.981Z,8.9339
2023-04-17T09:37:24.018Z,9.0308
2023-04-17T09:38:25.014Z,9.0466
2023-04-17T09:39:26.087Z,9.0707
2023-04-17T09:40:27.122Z,9.2853
2023-04-17T09:41:28.106Z,9.3328
2023-04-17T09:42:29.177Z,9.1978
2023-04-17T09:43:30.203Z,9.1512
2023-04-17T09:44:31.315Z,9.4061
2023-04-17T09:45:32.294Z,9.3089
2023-04-17T09:46:33.389Z,9.3650
2023-04-17T09:47:34.401Z,9.3589
2023-04-17T09:48:35.455Z,9.5259
2023-04-17T09:49:36.459Z,9.4525
2023-04-17T09:50:38.835Z,9.5306
2023-04-17T09:51:38.536Z,9.6029
2023-04-17T09:52:39.531Z,9.4679
2023-04-17T09:53:40.578Z,9.3609
2023-04-17T09:54:41.746Z,9.4455
2023-04-17T09:55:42.768Z,9.6281
2023-04-17T09:56:43.845Z,9.6668
2023-04-17T09:57:44.816Z,9.6427
2023-04-17T09:58:45.857Z,9.6392
2023-04-17T09:59:46.965Z,9.6838
2023-04-17T10:00:48.218Z,9.4106
2023-04-17T10:01:48.984Z,9.6514
2023-04-17T10:02:50.115Z,9.5382
2023-04-17T10:03:51.408Z,9.3389
2023-04-17T10:04:52.071Z,9.3601
2023-04-17T10:05:53.047Z,9.4207
2023-04-17T10:06:54.413Z,9.5721
2023-04-17T10:07:55.126Z,9.5608
2023-04-17T10:08:56.173Z,9.5517
2023-04-17T10:09:57.264Z,9.7140
2023-04-17T10:10:58.261Z,9.8052
2023-04-17T10:11:59.261Z,9.9055
2023-04-17T10:13:00.347Z,9.7691
2023-04-17T10:14:01.360Z,9.7518
2023-04-17T10:15:02.414Z,9.8167
2023-04-17T10:16:03.483Z,9.8319
2023-04-17T10:17:04.472Z,9.8841
2023-04-17T10:18:05.585Z,9.9993
2023-04-17T10:19:06.575Z,10.0145
2023-04-17T10:20:07.632Z,9.9704
2023-04-17T10:21:08.632Z,9.9985
2023-04-17T10:22:09.674Z,10.0016
2023-04-17T10:23:10.733Z,10.1035
2023-04-17T10:24:11.927Z,10.0123
2023-04-17T10:25:12.849Z,9.9246
2023-04-17T10:26:13.841Z,10.0794
2023-04-17T10:27:14.835Z,10.1758
2023-04-17T10:28:15.906Z,10.1238
2023-04-17T10:29:16.917Z,10.1215
2023-04-17T10:30:17.972Z,10.2723
2023-04-17T10:31:19.021Z,10.1893
2023-04-17T10:32:20.108Z,10.4001
2023-04-17T10:33:21.218Z,10.2840
2023-04-17T10:34:22.096Z,10.5708
2023-04-17T10:35:23.156Z,10.6455
2023-04-17T10:36:24.183Z,10.8056
2023-04-17T10:37:25.213Z,10.9210
2023-04-17T10:38:26.264Z,10.6583
2023-04-17T10:39:27.282Z,10.6540
2023-04-17T10:40:28.394Z,10.5642
2023-04-17T10:41:29.423Z,10.6877
2023-04-17T10:42:30.436Z,10.8113
2023-04-17T10:43:31.488Z,10.7583
2023-04-17T10:44:32.495Z,10.9181
2023-04-17T10:45:33.597Z,11.0940
2023-04-17T10:46:34.600Z,11.0046
2023-04-17T10:47:35.646Z,10.7739
2023-04-17T10:48:37.006Z,10.4410
2023-04-17T10:49:37.693Z,10.3633
2023-04-17T10:50:38.803Z,10.5406
2023-04-17T10:51:39.782Z,10.5472
2023-04-17T10:52:40.871Z,10.5800
2023-04-17T10:53:41.866Z,10.7102
2023-04-17T10:54:42.867Z,10.9241
2023-04-17T10:55:44.001Z,10.8121
2023-04-17T10:56:45.076Z,11.0597
2023-04-17T10:57:46.012Z,11.0262
2023-04-17T10:58:47.086Z,10.8249
2023-04-17T10:59:48.092Z,10.6887
2023-04-17T11:00:49.152Z,10.6671
2023-04-17T11:01:50.352Z,10.6550
2023-04-17T11:02:51.348Z,10.6854
2023-04-17T11:03:52.262Z,10.7830
2023-04-17T11:04:53.364Z,10.7351
2023-04-17T11:05:54.351Z,10.6831
2023-04-17T11:06:55.450Z,10.8848
2023-04-17T11:07:56.429Z,11.0114
2023-04-17T11:08:57.656Z,11.1734
2023-04-17T11:09:58.552Z,11.1950
2023-04-17T11:10:59.658Z,11.2909
2023-04-17T11:12:00.753Z,11.6050
2023-04-17T11:13:01.733Z,11.4631
2023-04-17T11:14:02.750Z,11.4039
2023-04-17T11:15:03.807Z,11.4721
2023-04-17T11:16:04.819Z,11.5876
2023-04-17T11:17:05.948Z,11.5968
2023-04-17T11:18:06.963Z,11.6839
2023-04-17T11:19:07.937Z,11.4060
2023-04-17T11:20:09.010Z,11.7408
2023-04-17T11:21:10.022Z,11.6132
2023-04-17T11:22:11.099Z,11.5765
2023-04-17T11:23:12.099Z,11.6467
2023-04-17T11:24:13.136Z,11.5701
2023-04-17T11:25:14.155Z,11.5383
2023-04-17T11:26:15.198Z,11.5674
2023-04-17T11:27:16.300Z,11.5368
2023-04-17T11:28:17.298Z,11.7960
2023-04-17T11:29:18.346Z,11.7667
2023-04-17T11:30:19.390Z,11.4699
2023-04-17T11:31:21.574Z,11.3680
2023-04-17T11:32:21.522Z,11.2320
2023-04-17T11:33:22.513Z,11.3121
2023-04-17T11:34:23.557Z,11.4573
2023-04-17T11:35:24.549Z,11.5243
2023-04-17T11:36:25.630Z,11.4384
2023-04-17T11:37:26.696Z,11.5136
2023-04-17T11:38:27.721Z,11.6802
2023-04-17T11:39:28.757Z,11.7494
2023-04-17T11:40:29.801Z,12.1734
2023-04-17T11:41:30.846Z,11.9667
2023-04-17T11:42:31.893Z,11.9891
2023-04-17T11:43:32.902Z,12.0729
2023-04-17T11:44:33.949Z,12.4304
2023-04-17T11:45:35.014Z,12.1874
2023-04-17T11:46:36.090Z,12.2192
2023-04-17T11:47:37.167Z,11.8546
2023-04-17T11:48:38.090Z,11.9082
2023-04-17T11:49:39.108Z,12.0019
2023-04-17T11:50:40.167Z,11.9489
2023-04-17T11:51:41.187Z,11.7659
2023-04-17T11:52:42.249Z,11.9819
2023-04-17T11:53:43.268Z,11.6510
2023-04-17T11:54:44.304Z,11.7124
2023-04-17T11:55:45.398Z,11.6979
2023-04-17T11:56:46.411Z,12.0836
2023-04-17T11:57:47.566Z,11.9819
2023-04-17T11:58:48.474Z,11.7297
2023-04-17T11:59:49.512Z,11.6060
2023-04-17T12:00:50.547Z,11.5847
2023-04-17T12:01:51.603Z,11.6931
2023-04-17T12:02:52.715Z,11.4569
2023-04-17T12:03:53.806Z,11.5058
2023-04-17T12:04:54.836Z,11.7042
2023-04-17T12:05:55.802Z,11.7149
2023-04-17T12:06:58.549Z,11.8683
2023-04-17T12:07:57.828Z,11.8443
2023-04-17T12:08:58.858Z,11.9865
2023-04-17T12:09:59.878Z,12.0162
2023-04-17T12:11:01.172Z,12.0791
2023-04-17T12:12:01.962Z,12.1947
2023-04-17T12:13:03.033Z,11.9610
2023-04-17T12:14:04.036Z,12.0836
2023-04-17T12:15:05.080Z,12.0146
2023-04-17T12:16:06.168Z,11.9257
2023-04-17T12:17:07.179Z,12.5049
2023-04-17T12:18:08.487Z,12.5511
2023-04-17T12:19:09.286Z,12.4702
2023-04-17T12:20:10.330Z,12.3276
2023-04-17T12:21:11.347Z,12.1282
2023-04-17T12:22:12.375Z,12.1465
2023-04-17T12:23:13.475Z,11.9686
2023-04-17T12:24:14.491Z,12.0253
2023-04-17T12:25:15.496Z,12.0949
2023-04-17T12:26:16.575Z,12.0688
2023-04-17T12:27:17.676Z,11.9976
2023-04-17T12:28:18.763Z,12.0177
2023-04-17T12:29:26.579Z,11.9828
2023-04-17T12:30:20.846Z,12.0054
2023-04-17T12:31:21.943Z,11.9943
2023-04-17T12:32:22.938Z,11.9125
2023-04-17T12:33:23.953Z,12.1313
2023-04-17T12:34:26.562Z,12.2286
2023-04-17T12:35:26.002Z,12.3638
2023-04-17T12:36:27.122Z,12.4998
2023-04-17T12:37:28.191Z,12.2301